Salonica, Greece
Current Conditions -  °F | °C
As of 10:20 AM on Friday 24 Oct 2014 (Local Time) from LGTS Reporting Station
Light Rain Light Rain  
Wind Chill: 52°   Ceiling: 3000
Heat Index: 52°   Visibility: 6mi
Dew Point: 46°   Wind: 9mph
Humidity: 82%   Direction: 260°W
Pressure: 29.83"   Gusts: NA
Location:  40.52°N, 22.97°E
Report Text: LGTS 240720Z 26008KT 9000 -RA FEW020 BKN030 OVC090 11/08 Q1010 NOSIG
Loading
Personal Weather Stations






























Interactive Weather Map
Tropical Storm Tracking
New forecast layout! Learn more

10-Day Weather Forecast

Advertisements
Track Severe Weather on mobile